Time;durP1;ratioP1;P1;durP2;ratioP2;P2;SDS_P1;SDS_P2;PMS_P1;PMS_P2;Temp;Humidity;BMP_temperature;BMP_pressure;BME280_temperature;BME280_humidity;BME280_pressure;Samples;Min_cycle;Max_cycle;Signal;HPM_P1;HPM_P2
2021/09/08 00:01:17;;;;;;;4.03;2.80;;;;;;;;;;4540072;28;20601;-63
2021/09/08 00:03:27;;;;;;;4.40;3.25;;;;;;;;;;4541998;28;20037;-63
2021/09/08 00:05:37;;;;;;;5.53;3.60;;;;;;;;;;4536767;28;20379;-63
2021/09/08 00:07:48;;;;;;;4.90;3.37;;;;;;;;;;4541346;28;20033;-63
2021/09/08 00:09:58;;;;;;;4.33;2.93;;;;;;;;;;4539580;28;20509;-63
2021/09/08 00:12:09;;;;;;;6.27;3.33;;;;;;;;;;4541366;28;20052;-63
2021/09/08 00:14:19;;;;;;;4.43;2.97;;;;;;;;;;4541304;28;20677;-63
2021/09/08 00:16:30;;;;;;;4.37;2.97;;;;;;;;;;4541398;28;20130;-62
2021/09/08 00:18:40;;;;;;;4.53;3.43;;;;;;;;;;4541289;28;21053;-62
2021/09/08 00:20:51;;;;;;;3.70;2.83;;;;;;;;;;4539954;28;20057;-62
2021/09/08 00:23:01;;;;;;;5.27;3.20;;;;;;;;;;4532549;28;20030;-62
2021/09/08 00:25:12;;;;;;;4.80;3.20;;;;;;;;;;4541992;28;20036;-62
2021/09/08 00:27:23;;;;;;;5.18;3.22;;;;;;;;;;4541477;28;20037;-62
2021/09/08 00:29:34;;;;;;;4.73;3.50;;;;;;;;;;4523405;28;35070;-62
2021/09/08 00:31:45;;;;;;;4.40;3.25;;;;;;;;;;4541032;28;20470;-62
2021/09/08 00:33:56;;;;;;;4.57;3.22;;;;;;;;;;4539737;28;20079;-63
2021/09/08 00:36:07;;;;;;;4.77;3.23;;;;;;;;;;4539999;28;20545;-63
2021/09/08 00:38:18;;;;;;;5.00;3.30;;;;;;;;;;4534747;28;20601;-62
2021/09/08 00:40:28;;;;;;;4.33;3.20;;;;;;;;;;4540759;28;20033;-62
2021/09/08 00:42:38;;;;;;;4.80;3.43;;;;;;;;;;4528874;28;20584;-62
2021/09/08 00:44:49;;;;;;;4.23;3.03;;;;;;;;;;4540894;28;20075;-62
2021/09/08 00:47:00;;;;;;;4.80;3.57;;;;;;;;;;4556383;28;20678;-62
2021/09/08 00:49:12;;;;;;;5.10;3.40;;;;;;;;;;4556033;28;20028;-62
2021/09/08 00:51:22;;;;;;;4.85;3.28;;;;;;;;;;4541231;28;20494;-62
2021/09/08 00:53:34;;;;;;;4.75;3.17;;;;;;;;;;4540776;28;20480;-62
2021/09/08 00:55:46;;;;;;;4.68;3.25;;;;;;;;;;4541127;28;20098;-62
2021/09/08 00:58:00;;;;;;;4.25;3.22;;;;;;;;;;4540612;28;20037;-62
2021/09/08 01:00:12;;;;;;;5.57;3.30;;;;;;;;;;4538850;28;20966;-62
2021/09/08 01:02:24;;;;;;;4.05;3.22;;;;;;;;;;4533761;28;20029;-62
2021/09/08 01:04:39;;;;;;;4.53;3.08;;;;;;;;;;4540378;28;20754;-62
2021/09/08 01:06:57;;;;;;;3.90;2.90;;;;;;;;;;4539545;28;20033;-62
2021/09/08 01:09:08;;;;;;;3.80;2.67;;;;;;;;;;4522509;28;20028;-62
2021/09/08 01:11:20;;;;;;;5.10;3.28;;;;;;;;;;4540765;28;20044;-62
2021/09/08 01:13:32;;;;;;;4.88;3.38;;;;;;;;;;4540749;28;20024;-62
2021/09/08 01:15:56;;;;;;;3.80;2.92;;;;;;;;;;4540702;28;20106;-62
2021/09/08 01:18:07;;;;;;;4.55;3.25;;;;;;;;;;4540521;28;20120;-62
2021/09/08 01:20:17;;;;;;;4.83;3.40;;;;;;;;;;4533570;28;20452;-63
2021/09/08 01:22:34;;;;;;;4.03;3.17;;;;;;;;;;4540259;28;20036;-62
2021/09/08 01:24:44;;;;;;;4.78;3.15;;;;;;;;;;4540665;28;20032;-62
2021/09/08 01:26:56;;;;;;;5.50;3.60;;;;;;;;;;4540805;28;20100;-62
2021/09/08 01:29:07;;;;;;;4.57;3.30;;;;;;;;;;4540324;28;20033;-62
2021/09/08 01:31:20;;;;;;;5.47;3.45;;;;;;;;;;4539474;28;20029;-62
2021/09/08 01:33:30;;;;;;;5.05;3.47;;;;;;;;;;4540481;28;20669;-63
2021/09/08 01:35:41;;;;;;;4.37;3.50;;;;;;;;;;4539081;28;20171;-62
2021/09/08 01:37:51;;;;;;;4.20;3.33;;;;;;;;;;4540044;28;31255;-62
2021/09/08 01:40:03;;;;;;;4.70;3.30;;;;;;;;;;4539993;28;20056;-62
2021/09/08 01:42:13;;;;;;;4.78;3.47;;;;;;;;;;4540213;28;20541;-62
2021/09/08 01:44:24;;;;;;;4.83;3.23;;;;;;;;;;4540546;28;20040;-62
2021/09/08 01:46:35;;;;;;;4.18;3.10;;;;;;;;;;4536507;28;20041;-62
2021/09/08 01:48:45;;;;;;;4.10;3.17;;;;;;;;;;4555002;28;20713;-62
2021/09/08 01:50:56;;;;;;;5.03;3.47;;;;;;;;;;4555912;28;20120;-62
2021/09/08 01:53:06;;;;;;;4.33;3.13;;;;;;;;;;4540699;28;20029;-62
2021/09/08 01:55:17;;;;;;;4.63;3.13;;;;;;;;;;4540158;28;20111;-62
2021/09/08 01:57:28;;;;;;;4.85;3.30;;;;;;;;;;4540085;28;20099;-63
2021/09/08 01:59:38;;;;;;;4.60;3.40;;;;;;;;;;4539537;28;20310;-62
2021/09/08 02:01:49;;;;;;;5.43;3.53;;;;;;;;;;4540052;28;20055;-62
2021/09/08 02:03:59;;;;;;;4.57;3.43;;;;;;;;;;4539984;28;20140;-62
2021/09/08 02:06:23;;;;;;;5.03;3.30;;;;;;;;;;4539939;28;20048;-62
2021/09/08 02:08:33;;;;;;;4.35;3.17;;;;;;;;;;4538541;28;20037;-62
2021/09/08 02:10:44;;;;;;;4.77;3.30;;;;;;;;;;4539794;28;20029;-63
2021/09/08 02:12:56;;;;;;;5.22;3.50;;;;;;;;;;4540136;28;20028;-62
2021/09/08 02:15:06;;;;;;;5.27;3.40;;;;;;;;;;4537952;28;20227;-62
2021/09/08 02:17:17;;;;;;;5.13;3.23;;;;;;;;;;4540028;28;20037;-62
2021/09/08 02:19:27;;;;;;;4.37;3.07;;;;;;;;;;4539496;28;20041;-62
2021/09/08 02:21:38;;;;;;;4.60;3.27;;;;;;;;;;4539327;28;20036;-62
2021/09/08 02:23:48;;;;;;;4.60;3.57;;;;;;;;;;4539393;28;20037;-62
2021/09/08 02:25:59;;;;;;;4.70;3.53;;;;;;;;;;4539618;28;20048;-63
2021/09/08 02:28:09;;;;;;;4.63;3.40;;;;;;;;;;4529113;28;32377;-62
2021/09/08 02:30:19;;;;;;;5.70;3.47;;;;;;;;;;4539636;28;20511;-62
2021/09/08 02:32:30;;;;;;;4.87;3.57;;;;;;;;;;4538425;28;20211;-62
2021/09/08 02:34:40;;;;;;;4.17;3.10;;;;;;;;;;4540076;28;20115;-62
2021/09/08 02:36:51;;;;;;;5.27;3.47;;;;;;;;;;4537959;28;20379;-63
2021/09/08 02:39:02;;;;;;;5.17;3.63;;;;;;;;;;4538693;28;35281;-62
2021/09/08 02:41:13;;;;;;;4.35;3.40;;;;;;;;;;4549012;28;20039;-62
2021/09/08 02:43:23;;;;;;;5.40;3.60;;;;;;;;;;4538421;28;20037;-62
2021/09/08 02:45:34;;;;;;;5.10;3.63;;;;;;;;;;4539487;28;20033;-62
2021/09/08 02:47:44;;;;;;;5.77;3.87;;;;;;;;;;4539385;28;20318;-63
2021/09/08 02:49:54;;;;;;;5.17;3.33;;;;;;;;;;4538870;28;24801;-63
2021/09/08 02:52:05;;;;;;;5.80;3.70;;;;;;;;;;4539532;28;20037;-62
2021/09/08 02:54:15;;;;;;;5.07;3.60;;;;;;;;;;4539560;28;20037;-62
2021/09/08 02:56:26;;;;;;;4.90;3.27;;;;;;;;;;4539717;28;20129;-62
2021/09/08 02:58:36;;;;;;;4.23;3.13;;;;;;;;;;4539329;28;20511;-62
2021/09/08 03:00:47;;;;;;;4.60;3.50;;;;;;;;;;4537828;28;21113;-62
2021/09/08 03:02:57;;;;;;;5.60;3.33;;;;;;;;;;4539600;28;20409;-62
2021/09/08 03:05:08;;;;;;;4.60;3.37;;;;;;;;;;4538845;28;20312;-62
2021/09/08 03:07:18;;;;;;;4.97;3.47;;;;;;;;;;4538588;28;20461;-62
2021/09/08 03:09:29;;;;;;;4.70;3.60;;;;;;;;;;4538621;28;20033;-62
2021/09/08 03:11:40;;;;;;;4.80;3.40;;;;;;;;;;4540781;28;20032;-62
2021/09/08 03:13:51;;;;;;;4.03;3.03;;;;;;;;;;4542287;28;20040;-63
2021/09/08 03:16:01;;;;;;;4.37;3.30;;;;;;;;;;4542208;28;20040;-62
2021/09/08 03:18:12;;;;;;;5.53;3.73;;;;;;;;;;4507625;28;20496;-63
2021/09/08 03:20:22;;;;;;;4.60;3.30;;;;;;;;;;4541955;28;20052;-62
2021/09/08 03:22:33;;;;;;;4.90;3.40;;;;;;;;;;4540647;28;20091;-62
2021/09/08 03:24:43;;;;;;;4.83;3.50;;;;;;;;;;4541457;28;31180;-62
2021/09/08 03:26:55;;;;;;;4.97;3.40;;;;;;;;;;4541893;28;20091;-63
2021/09/08 03:29:05;;;;;;;4.53;3.43;;;;;;;;;;4541619;28;26790;-62
2021/09/08 03:31:16;;;;;;;4.07;3.20;;;;;;;;;;4557240;28;20032;-63
2021/09/08 03:33:26;;;;;;;4.87;3.37;;;;;;;;;;4542374;28;20804;-62
2021/09/08 03:35:36;;;;;;;3.97;3.07;;;;;;;;;;4541766;28;20025;-62
2021/09/08 03:37:47;;;;;;;4.77;3.40;;;;;;;;;;4540496;28;20045;-62
2021/09/08 03:39:58;;;;;;;5.22;3.33;;;;;;;;;;4541816;28;20037;-62
2021/09/08 03:42:08;;;;;;;5.50;3.57;;;;;;;;;;4541840;28;20225;-62
2021/09/08 03:44:19;;;;;;;5.13;3.27;;;;;;;;;;4556940;28;20035;-62
2021/09/08 03:46:29;;;;;;;4.00;3.10;;;;;;;;;;4541595;28;20037;-62
2021/09/08 03:48:40;;;;;;;5.07;3.50;;;;;;;;;;4541729;28;20071;-62
2021/09/08 03:50:50;;;;;;;4.73;3.23;;;;;;;;;;4541565;28;20037;-62
2021/09/08 03:53:00;;;;;;;4.70;3.40;;;;;;;;;;4540989;28;20118;-62
2021/09/08 03:55:11;;;;;;;4.63;3.37;;;;;;;;;;4541512;28;20033;-62
2021/09/08 03:57:21;;;;;;;5.43;3.70;;;;;;;;;;4556734;28;20067;-62
2021/09/08 03:59:32;;;;;;;5.30;3.40;;;;;;;;;;4541067;28;20033;-62
2021/09/08 04:01:43;;;;;;;4.53;3.15;;;;;;;;;;4541531;28;20037;-62
2021/09/08 04:03:54;;;;;;;4.65;3.42;;;;;;;;;;4541162;28;20049;-63
2021/09/08 04:06:05;;;;;;;4.35;3.28;;;;;;;;;;4541620;28;20029;-62
2021/09/08 04:08:15;;;;;;;4.63;3.30;;;;;;;;;;4523076;28;20553;-63
2021/09/08 04:10:26;;;;;;;5.27;3.53;;;;;;;;;;4556203;28;20137;-62
2021/09/08 04:12:36;;;;;;;5.40;3.53;;;;;;;;;;4541261;28;20076;-62
2021/09/08 04:14:47;;;;;;;5.77;3.67;;;;;;;;;;4539671;28;20212;-62
2021/09/08 04:16:57;;;;;;;5.70;3.90;;;;;;;;;;4539963;28;20029;-63
2021/09/08 04:19:08;;;;;;;5.63;3.80;;;;;;;;;;4539755;28;20513;-63
2021/09/08 04:21:18;;;;;;;5.37;3.77;;;;;;;;;;4541064;28;20029;-63
2021/09/08 04:23:28;;;;;;;4.93;3.10;;;;;;;;;;4539830;28;20115;-62
2021/09/08 04:25:40;;;;;;;4.87;3.57;;;;;;;;;;4529018;28;20041;-63
2021/09/08 04:27:50;;;;;;;;;;;;;;;;;;4540853;28;20044;-63
2021/09/08 04:30:01;;;;;;;4.93;3.65;;;;;;;;;;4540435;28;19923;-62
2021/09/08 04:32:11;;;;;;;5.30;3.80;;;;;;;;;;4540923;28;20048;-63
2021/09/08 04:34:21;;;;;;;5.53;3.70;;;;;;;;;;4540909;28;20029;-62
2021/09/08 04:36:32;;;;;;;4.70;3.50;;;;;;;;;;4541311;28;20037;-63
2021/09/08 04:38:45;;;;;;;4.40;3.08;;;;;;;;;;4540985;28;20056;-63
2021/09/08 04:40:56;;;;;;;5.07;3.70;;;;;;;;;;4541157;28;20037;-63
2021/09/08 04:43:06;;;;;;;5.90;3.95;;;;;;;;;;4540292;28;20419;-63
2021/09/08 04:45:16;;;;;;;6.43;4.10;;;;;;;;;;4539569;28;27515;-62
2021/09/08 04:47:27;;;;;;;4.77;3.37;;;;;;;;;;4538398;28;20041;-62
2021/09/08 04:49:37;;;;;;;5.07;3.63;;;;;;;;;;4541072;28;20537;-63
2021/09/08 04:51:48;;;;;;;6.10;3.80;;;;;;;;;;4539774;28;20037;-63
2021/09/08 04:53:58;;;;;;;5.17;3.57;;;;;;;;;;4533019;28;20048;-63
2021/09/08 04:56:09;;;;;;;5.63;3.97;;;;;;;;;;4540145;28;20060;-63
2021/09/08 04:58:19;;;;;;;6.27;4.23;;;;;;;;;;4540574;28;20037;-62
2021/09/08 05:00:29;;;;;;;4.60;3.50;;;;;;;;;;4540452;28;20124;-62
2021/09/08 05:02:40;;;;;;;4.80;3.50;;;;;;;;;;4539277;28;20594;-62
2021/09/08 05:04:51;;;;;;;7.03;3.93;;;;;;;;;;4541147;28;20489;-63
2021/09/08 05:07:01;;;;;;;5.53;3.77;;;;;;;;;;4555890;28;20145;-63
2021/09/08 05:09:12;;;;;;;6.37;3.50;;;;;;;;;;4540249;28;20199;-63
2021/09/08 05:11:22;;;;;;;4.53;3.33;;;;;;;;;;4540278;28;20527;-63
2021/09/08 05:13:32;;;;;;;5.97;4.07;;;;;;;;;;4539957;28;27497;-63
2021/09/08 05:15:43;;;;;;;5.40;3.80;;;;;;;;;;4539844;28;20444;-62
2021/09/08 05:17:53;;;;;;;5.10;3.63;;;;;;;;;;4540407;28;20059;-63
2021/09/08 05:20:05;;;;;;;5.70;3.67;;;;;;;;;;4539681;28;20128;-63
2021/09/08 05:22:15;;;;;;;6.35;4.00;;;;;;;;;;4532005;28;20477;-62
2021/09/08 05:24:26;;;;;;;5.03;3.83;;;;;;;;;;4539457;28;20029;-63
2021/09/08 05:26:36;;;;;;;5.57;3.90;;;;;;;;;;4538531;28;20064;-63
2021/09/08 05:28:47;;;;;;;5.13;3.63;;;;;;;;;;4539347;28;20025;-62
2021/09/08 05:30:57;;;;;;;5.67;3.90;;;;;;;;;;4539075;28;20063;-63
2021/09/08 05:33:08;;;;;;;5.57;3.80;;;;;;;;;;4539740;28;20107;-62
2021/09/08 05:35:18;;;;;;;4.70;3.20;;;;;;;;;;4539715;28;20051;-63
2021/09/08 05:37:28;;;;;;;5.03;3.67;;;;;;;;;;4540143;28;20045;-64
2021/09/08 05:39:39;;;;;;;6.20;4.03;;;;;;;;;;4539466;28;20063;-63
2021/09/08 05:41:49;;;;;;;5.63;3.73;;;;;;;;;;4539537;28;34663;-64
2021/09/08 05:44:00;;;;;;;6.40;4.07;;;;;;;;;;4539687;28;28075;-62
2021/09/08 05:46:10;;;;;;;5.67;4.03;;;;;;;;;;4539903;28;20063;-63
2021/09/08 05:48:20;;;;;;;5.93;3.70;;;;;;;;;;4533846;28;22571;-62
2021/09/08 05:50:31;;;;;;;5.50;3.90;;;;;;;;;;4535348;28;20037;-62
2021/09/08 05:52:41;;;;;;;5.33;3.90;;;;;;;;;;4539855;28;20058;-62
2021/09/08 05:54:52;;;;;;;7.27;4.20;;;;;;;;;;4538899;28;20029;-62
2021/09/08 05:57:03;;;;;;;5.30;3.90;;;;;;;;;;4539452;28;21750;-62
2021/09/08 05:59:13;;;;;;;6.35;4.00;;;;;;;;;;4539627;28;20502;-62
2021/09/08 06:01:23;;;;;;;5.50;3.83;;;;;;;;;;4539446;28;20048;-62
2021/09/08 06:03:34;;;;;;;6.77;4.30;;;;;;;;;;4555474;28;20056;-62
2021/09/08 06:05:44;;;;;;;5.50;3.77;;;;;;;;;;4540235;28;20466;-62
2021/09/08 06:07:55;;;;;;;5.67;3.73;;;;;;;;;;4540061;28;20033;-63
2021/09/08 06:10:06;;;;;;;5.73;3.90;;;;;;;;;;4534164;28;20021;-62
2021/09/08 06:12:16;;;;;;;6.53;4.22;;;;;;;;;;4538779;28;20033;-62
2021/09/08 06:14:27;;;;;;;5.73;3.90;;;;;;;;;;4539825;28;20378;-62
2021/09/08 06:16:38;;;;;;;5.50;3.70;;;;;;;;;;4539992;28;20806;-62
2021/09/08 06:18:48;;;;;;;5.93;4.50;;;;;;;;;;4539732;28;20045;-62
2021/09/08 06:20:59;;;;;;;6.83;4.20;;;;;;;;;;4539828;28;20330;-62
2021/09/08 06:23:11;;;;;;;7.10;4.20;;;;;;;;;;4539262;28;20533;-62
2021/09/08 06:25:23;;;;;;;5.25;3.65;;;;;;;;;;4539745;28;20033;-62
2021/09/08 06:27:33;;;;;;;6.35;4.38;;;;;;;;;;4539650;28;20549;-62
2021/09/08 06:29:44;;;;;;;5.40;3.83;;;;;;;;;;4539593;28;20029;-62
2021/09/08 06:31:54;;;;;;;5.90;4.00;;;;;;;;;;4539963;28;20740;-62
2021/09/08 06:34:05;;;;;;;6.47;4.13;;;;;;;;;;4555500;28;20028;-62
2021/09/08 06:36:15;;;;;;;5.83;4.20;;;;;;;;;;4539509;28;20044;-62
2021/09/08 06:38:25;;;;;;;5.50;4.03;;;;;;;;;;4554997;28;20071;-62
2021/09/08 06:40:36;;;;;;;5.80;4.27;;;;;;;;;;4539610;28;20502;-62
2021/09/08 06:42:46;;;;;;;5.57;4.00;;;;;;;;;;4539479;28;20033;-62
2021/09/08 06:44:57;;;;;;;6.27;4.10;;;;;;;;;;4539542;28;20401;-62
2021/09/08 06:47:07;;;;;;;6.07;4.07;;;;;;;;;;4542384;28;22540;-62
2021/09/08 06:49:19;;;;;;;5.78;4.10;;;;;;;;;;4542389;28;20041;-62
2021/09/08 06:51:29;;;;;;;6.90;4.70;;;;;;;;;;4542962;28;20033;-62
2021/09/08 06:53:40;;;;;;;6.27;3.83;;;;;;;;;;4542787;28;20041;-62
2021/09/08 06:55:50;;;;;;;8.07;4.53;;;;;;;;;;4542561;28;20090;-62
2021/09/08 06:58:01;;;;;;;5.87;4.23;;;;;;;;;;4557908;28;20488;-62
2021/09/08 07:00:11;;;;;;;6.63;4.27;;;;;;;;;;4542444;28;20048;-62
2021/09/08 07:02:22;;;;;;;6.27;4.53;;;;;;;;;;4542504;28;20029;-62
2021/09/08 07:04:33;;;;;;;6.63;4.80;;;;;;;;;;4542800;28;20798;-62
2021/09/08 07:06:43;;;;;;;5.73;3.83;;;;;;;;;;4542473;28;20082;-62
2021/09/08 07:08:53;;;;;;;5.90;4.30;;;;;;;;;;4542535;28;20839;-62
2021/09/08 07:11:04;;;;;;;6.13;4.10;;;;;;;;;;4534399;28;20079;-62
2021/09/08 07:13:15;;;;;;;6.70;4.20;;;;;;;;;;4543088;28;20087;-62
2021/09/08 07:15:25;;;;;;;6.60;4.50;;;;;;;;;;4542497;28;20025;-62
2021/09/08 07:17:36;;;;;;;7.53;4.77;;;;;;;;;;4542452;28;20107;-62
2021/09/08 07:19:46;;;;;;;6.93;4.87;;;;;;;;;;4541476;28;20101;-62
2021/09/08 07:21:56;;;;;;;7.23;4.77;;;;;;;;;;4541641;28;20425;-62
2021/09/08 07:24:07;;;;;;;7.13;4.70;;;;;;;;;;4542034;28;20064;-62
2021/09/08 07:26:17;;;;;;;6.53;4.37;;;;;;;;;;4540219;28;20037;-62
2021/09/08 07:28:28;;;;;;;7.50;4.50;;;;;;;;;;4525504;28;20379;-62
2021/09/08 07:30:38;;;;;;;6.47;4.50;;;;;;;;;;4542155;28;20405;-62
2021/09/08 07:32:49;;;;;;;6.23;4.43;;;;;;;;;;4542028;28;20029;-62
2021/09/08 07:34:59;;;;;;;7.37;4.87;;;;;;;;;;4535941;28;20563;-62
2021/09/08 07:37:10;;;;;;;5.93;3.93;;;;;;;;;;4542274;28;20029;-62
2021/09/08 07:39:20;;;;;;;6.47;4.57;;;;;;;;;;4539752;28;20045;-62
2021/09/08 07:41:30;;;;;;;6.53;4.47;;;;;;;;;;4541967;28;20055;-62
2021/09/08 07:43:41;;;;;;;6.70;4.40;;;;;;;;;;4541694;28;21582;-62
2021/09/08 07:45:52;;;;;;;7.28;4.68;;;;;;;;;;4542073;28;20148;-62
2021/09/08 07:48:03;;;;;;;5.77;4.00;;;;;;;;;;4541739;28;20456;-62
2021/09/08 07:50:13;;;;;;;6.00;4.15;;;;;;;;;;4540379;28;20021;-62
2021/09/08 07:52:23;;;;;;;6.10;4.03;;;;;;;;;;4541661;28;20037;-62
2021/09/08 07:54:34;;;;;;;7.17;4.73;;;;;;;;;;4541647;28;20037;-62
2021/09/08 07:56:44;;;;;;;7.10;4.40;;;;;;;;;;4541890;28;20036;-62
2021/09/08 07:58:55;;;;;;;5.70;3.83;;;;;;;;;;4541211;28;20052;-62
2021/09/08 08:01:05;;;;;;;6.20;4.10;;;;;;;;;;4539726;28;20033;-62
2021/09/08 08:03:16;;;;;;;5.80;3.63;;;;;;;;;;4541723;28;20068;-63
2021/09/08 08:05:26;;;;;;;6.57;4.00;;;;;;;;;;4540985;28;35346;-62
2021/09/08 08:07:37;;;;;;;6.83;3.83;;;;;;;;;;4541733;28;20120;-62
2021/09/08 08:09:47;;;;;;;5.53;3.87;;;;;;;;;;4541302;28;20032;-62
2021/09/08 08:11:57;;;;;;;6.07;4.07;;;;;;;;;;4556081;28;29707;-62
2021/09/08 08:14:08;;;;;;;6.43;4.00;;;;;;;;;;4541433;28;20029;-63
2021/09/08 08:16:18;;;;;;;3.37;2.00;;;;;;;;;;4541584;28;20037;-62
2021/09/08 08:18:29;;;;;;;3.70;1.93;;;;;;;;;;4541705;28;20116;-62
2021/09/08 08:20:39;;;;;;;2.23;1.73;;;;;;;;;;4556478;28;20182;-61
2021/09/08 08:22:50;;;;;;;2.90;2.10;;;;;;;;;;4540806;28;20048;-62
2021/09/08 08:25:02;;;;;;;3.38;1.90;;;;;;;;;;4541212;28;20255;-62
2021/09/08 08:27:13;;;;;;;3.13;1.80;;;;;;;;;;4539836;28;20029;-61
2021/09/08 08:29:23;;;;;;;3.70;1.63;;;;;;;;;;4541050;28;20037;-62
2021/09/08 08:31:34;;;;;;;4.57;1.90;;;;;;;;;;4522538;28;20038;-62
2021/09/08 08:33:46;;;;;;;2.50;1.87;;;;;;;;;;4539521;28;20029;-63
2021/09/08 08:35:56;;;;;;;2.78;1.80;;;;;;;;;;4556301;28;20047;-62
2021/09/08 08:38:07;;;;;;;2.70;1.63;;;;;;;;;;4541130;28;20433;-62
2021/09/08 08:40:19;;;;;;;2.17;1.60;;;;;;;;;;4541358;28;20459;-62
2021/09/08 08:42:31;;;;;;;3.15;1.60;;;;;;;;;;4541144;28;20041;-63
2021/09/08 08:44:41;;;;;;;5.45;1.63;;;;;;;;;;4541162;28;20123;-61
2021/09/08 08:46:53;;;;;;;2.88;1.65;;;;;;;;;;4540014;28;20036;-62
2021/09/08 08:49:03;;;;;;;2.60;1.83;;;;;;;;;;4539255;28;20033;-61
2021/09/08 08:51:14;;;;;;;3.03;1.90;;;;;;;;;;4540891;28;20029;-62
2021/09/08 08:53:24;;;;;;;2.70;1.67;;;;;;;;;;4540881;28;20589;-62
2021/09/08 08:55:36;;;;;;;4.13;1.63;;;;;;;;;;4540887;28;20106;-62
2021/09/08 08:57:48;;;;;;;3.55;1.70;;;;;;;;;;4541089;28;20041;-62
2021/09/08 08:59:58;;;;;;;2.70;1.98;;;;;;;;;;4540811;28;20041;-62
2021/09/08 09:02:16;;;;;;;3.20;1.70;;;;;;;;;;4540891;28;31891;-61
2021/09/08 09:04:37;;;;;;;2.75;1.58;;;;;;;;;;4536768;28;20058;-62
2021/09/08 09:06:49;;;;;;;2.28;1.63;;;;;;;;;;4538009;28;20086;-62
2021/09/08 09:09:05;;;;;;;3.33;1.85;;;;;;;;;;4539070;28;20041;-62
2021/09/08 09:11:17;;;;;;;2.78;1.65;;;;;;;;;;4538997;28;20036;-63
2021/09/08 09:13:32;;;;;;;2.75;1.80;;;;;;;;;;4539903;28;20124;-63
2021/09/08 09:15:43;;;;;;;3.47;1.60;;;;;;;;;;4540091;28;20496;-63
2021/09/08 09:17:54;;;;;;;2.23;1.40;;;;;;;;;;4540288;28;25770;-62
2021/09/08 09:20:08;;;;;;;3.50;1.60;;;;;;;;;;4538748;28;20539;-63
2021/09/08 09:22:19;;;;;;;2.30;1.63;;;;;;;;;;4538470;28;20596;-63
2021/09/08 09:24:29;;;;;;;4.80;1.98;;;;;;;;;;4538976;28;20028;-64
2021/09/08 09:26:42;;;;;;;3.30;1.87;;;;;;;;;;4523452;28;20045;-64
2021/09/08 09:28:53;;;;;;;3.10;1.75;;;;;;;;;;4538567;28;20033;-63
2021/09/08 09:31:12;;;;;;;2.90;1.40;;;;;;;;;;4539003;28;20029;-65
2021/09/08 09:33:29;;;;;;;2.75;1.70;;;;;;;;;;4540583;28;20029;-62
2021/09/08 09:35:40;;;;;;;3.28;1.60;;;;;;;;;;4539550;28;20095;-63
2021/09/08 09:37:56;;;;;;;3.35;1.83;;;;;;;;;;4538330;28;20033;-63
2021/09/08 09:40:07;;;;;;;2.38;1.63;;;;;;;;;;4528039;28;20053;-63
2021/09/08 09:42:25;;;;;;;2.53;1.77;;;;;;;;;;4527968;28;20037;-63
2021/09/08 09:44:36;;;;;;;3.17;1.75;;;;;;;;;;4538988;28;20063;-64
2021/09/08 09:46:47;;;;;;;3.70;2.00;;;;;;;;;;4538654;28;20043;-63
2021/09/08 09:49:00;;;;;;;4.23;1.90;;;;;;;;;;4536836;28;30232;-63
2021/09/08 09:51:13;;;;;;;5.47;2.40;;;;;;;;;;4539624;28;20080;-63
2021/09/08 09:53:23;;;;;;;4.93;2.40;;;;;;;;;;4537831;28;20037;-63
2021/09/08 09:55:33;;;;;;;4.83;2.33;;;;;;;;;;4534331;28;20466;-63
2021/09/08 09:57:44;;;;;;;6.93;2.70;;;;;;;;;;4535807;28;20059;-64
2021/09/08 09:59:58;;;;;;;4.45;2.55;;;;;;;;;;4538022;28;20045;-63
2021/09/08 10:02:09;;;;;;;5.35;2.75;;;;;;;;;;4555056;28;20043;-63
2021/09/08 10:04:20;;;;;;;5.05;2.78;;;;;;;;;;4538217;28;20056;-64
2021/09/08 10:06:31;;;;;;;6.53;2.90;;;;;;;;;;4539633;28;20048;-63
2021/09/08 10:08:48;;;;;;;5.90;2.53;;;;;;;;;;4539651;28;20079;-64
2021/09/08 10:11:03;;;;;;;5.57;2.85;;;;;;;;;;4537781;28;20140;-63
2021/09/08 10:13:35;;;;;;;5.07;2.45;;;;;;;;;;4538331;28;20040;-63
2021/09/08 10:15:45;;;;;;;6.20;2.92;;;;;;;;;;4537868;28;20075;-63
2021/09/08 10:18:06;;;;;;;6.13;3.00;;;;;;;;;;4538130;28;20040;-63
2021/09/08 10:20:18;;;;;;;7.85;2.92;;;;;;;;;;4539421;28;20604;-62
2021/09/08 10:22:29;;;;;;;6.70;2.88;;;;;;;;;;4540498;28;20037;-63
2021/09/08 10:24:44;;;;;;;9.50;3.10;;;;;;;;;;4537163;28;20521;-63
2021/09/08 10:26:55;;;;;;;7.05;3.30;;;;;;;;;;4542532;28;20529;-63
2021/09/08 10:29:07;;;;;;;5.20;2.70;;;;;;;;;;4541183;28;20037;-63
2021/09/08 10:31:18;;;;;;;7.10;2.97;;;;;;;;;;4542770;28;20033;-63
2021/09/08 10:33:28;;;;;;;6.47;3.03;;;;;;;;;;4542900;28;20770;-63
2021/09/08 10:35:40;;;;;;;6.70;3.10;;;;;;;;;;4541448;28;20052;-62
2021/09/08 10:37:53;;;;;;;8.63;3.70;;;;;;;;;;4541269;28;20108;-63
2021/09/08 10:40:06;;;;;;;6.60;2.80;;;;;;;;;;4541386;28;21214;-63
2021/09/08 10:42:17;;;;;;;6.65;2.75;;;;;;;;;;4541000;28;20041;-63
2021/09/08 10:44:45;;;;;;;8.37;3.40;;;;;;;;;;4541335;28;20041;-63
2021/09/08 10:46:58;;;;;;;7.75;3.30;;;;;;;;;;4542874;28;20083;-63
2021/09/08 10:49:08;;;;;;;6.45;3.28;;;;;;;;;;4540391;28;20568;-63
2021/09/08 10:51:21;;;;;;;7.07;3.00;;;;;;;;;;4540020;28;27116;-63
2021/09/08 10:53:33;;;;;;;6.57;3.40;;;;;;;;;;4539775;28;20063;-63
2021/09/08 10:55:44;;;;;;;6.32;2.95;;;;;;;;;;4534712;28;20124;-62
2021/09/08 10:57:58;;;;;;;8.43;3.80;;;;;;;;;;4524029;28;20112;-62
2021/09/08 11:00:14;;;;;;;6.63;2.92;;;;;;;;;;4541807;28;20040;-63
2021/09/08 11:02:24;;;;;;;7.03;3.28;;;;;;;;;;4541980;28;20040;-62
2021/09/08 11:04:35;;;;;;;7.50;3.53;;;;;;;;;;4542412;28;20040;-63
2021/09/08 11:07:06;;;;;;;7.93;3.37;;;;;;;;;;4540841;28;20067;-62
2021/09/08 11:09:17;;;;;;;;;;;;;;;;;;4522252;28;20037;-62
2021/09/08 11:11:28;;;;;;;8.90;3.73;;;;;;;;;;4489856;28;19914;-63
2021/09/08 11:13:39;;;;;;;8.70;3.93;;;;;;;;;;4504164;28;20077;-63
2021/09/08 11:15:49;;;;;;;7.93;3.78;;;;;;;;;;4505339;28;20034;-63
2021/09/08 11:18:01;;;;;;;8.07;3.47;;;;;;;;;;4520736;28;20046;-63
2021/09/08 11:20:17;;;;;;;;;;;;;;;;;;4522197;28;21261;-63
2021/09/08 11:22:27;;;;;;;8.00;3.40;;;;;;;;;;4505323;28;19922;-63
2021/09/08 11:24:37;;;;;;;7.67;3.87;;;;;;;;;;4520221;28;31634;-62
2021/09/08 11:26:48;;;;;;;8.27;3.57;;;;;;;;;;4521696;28;20049;-62
2021/09/08 11:29:04;;;;;;;7.47;3.57;;;;;;;;;;4523354;28;20046;-63
2021/09/08 11:31:17;;;;;;;7.38;3.78;;;;;;;;;;4504249;28;20041;-62
2021/09/08 11:33:35;;;;;;;9.57;4.40;;;;;;;;;;4521731;28;20172;-63
2021/09/08 11:35:48;;;;;;;9.30;3.75;;;;;;;;;;4488919;28;20077;-63
2021/09/08 11:37:59;;;;;;;8.80;3.72;;;;;;;;;;4504317;28;20037;-62
2021/09/08 11:40:09;;;;;;;8.20;3.80;;;;;;;;;;4520476;28;21317;-63
2021/09/08 11:42:22;;;;;;;7.83;3.80;;;;;;;;;;4488935;28;20042;-63
2021/09/08 11:44:33;;;;;;;7.38;3.85;;;;;;;;;;4520563;28;21055;-63
2021/09/08 11:46:43;;;;;;;7.75;3.72;;;;;;;;;;4533493;28;20614;-64
2021/09/08 11:49:01;;;;;;;8.53;3.70;;;;;;;;;;4541275;28;20033;-63
2021/09/08 11:51:13;;;;;;;9.25;3.85;;;;;;;;;;4540274;28;20588;-63
2021/09/08 11:53:24;;;;;;;8.77;3.45;;;;;;;;;;4539595;28;20033;-62
2021/09/08 11:55:38;;;;;;;6.70;3.58;;;;;;;;;;4542063;28;20044;-63
2021/09/08 11:57:48;;;;;;;5.95;3.30;;;;;;;;;;4541502;28;20654;-62
2021/09/08 11:59:59;;;;;;;7.07;3.37;;;;;;;;;;4541488;28;20191;-60
2021/09/08 12:02:10;;;;;;;7.47;3.80;;;;;;;;;;4521514;28;22572;-64
2021/09/08 12:04:22;;;;;;;8.63;3.80;;;;;;;;;;4540610;28;29683;-61
2021/09/08 12:06:34;;;;;;;8.73;4.03;;;;;;;;;;4537137;28;20120;-62
2021/09/08 12:08:58;;;;;;;8.32;3.80;;;;;;;;;;4539671;28;20600;-63
2021/09/08 12:11:11;;;;;;;7.85;3.72;;;;;;;;;;4534212;27;20137;-63
2021/09/08 12:13:33;;;;;;;7.15;3.55;;;;;;;;;;4517961;28;20135;-62
2021/09/08 12:15:45;;;;;;;8.02;3.47;;;;;;;;;;4538868;28;20036;-63
2021/09/08 12:18:13;;;;;;;7.55;3.60;;;;;;;;;;4514913;28;20737;-62
2021/09/08 12:20:24;;;;;;;7.35;3.50;;;;;;;;;;4514312;28;20627;-63
2021/09/08 12:22:36;;;;;;;6.93;3.60;;;;;;;;;;4518092;28;20056;-62
2021/09/08 12:24:51;;;;;;;7.95;3.60;;;;;;;;;;4509711;28;20150;-61
2021/09/08 12:27:01;;;;;;;7.88;3.53;;;;;;;;;;4489676;28;20049;-61
2021/09/08 12:29:12;;;;;;;8.13;3.63;;;;;;;;;;4489242;28;20056;-60
2021/09/08 12:31:22;;;;;;;8.90;3.73;;;;;;;;;;4532909;28;20029;-59
2021/09/08 12:33:50;;;;;;;5.53;3.33;;;;;;;;;;4517807;27;20065;-63
2021/09/08 12:36:14;;;;;;;6.32;3.42;;;;;;;;;;4539367;28;20045;-61
2021/09/08 12:38:24;;;;;;;7.60;3.42;;;;;;;;;;4512318;28;20124;-62
2021/09/08 12:40:35;;;;;;;4.50;2.63;;;;;;;;;;4528868;28;20044;-61
2021/09/08 12:42:45;;;;;;;7.10;3.33;;;;;;;;;;4519781;28;20536;-61
2021/09/08 12:45:05;;;;;;;7.70;3.13;;;;;;;;;;4524428;28;20036;-61
2021/09/08 12:47:21;;;;;;;9.30;3.50;;;;;;;;;;4524923;28;20079;-62
2021/09/08 12:49:31;;;;;;;7.25;3.33;;;;;;;;;;4524880;28;20490;-61
2021/09/08 12:51:42;;;;;;;6.47;3.43;;;;;;;;;;4517558;28;20033;-63
2021/09/08 12:53:53;;;;;;;;;;;;;;;;;;4537590;28;20029;-62
2021/09/08 12:56:04;;;;;;;7.67;3.47;;;;;;;;;;4518830;28;20181;-61
2021/09/08 12:58:14;;;;;;;6.78;3.60;;;;;;;;;;4532666;28;20033;-62
2021/09/08 13:00:25;;;;;;;7.03;3.40;;;;;;;;;;4539223;28;20048;-61
2021/09/08 13:02:35;;;;;;;7.37;3.27;;;;;;;;;;4554586;28;30793;-61
2021/09/08 13:04:45;;;;;;;5.73;2.90;;;;;;;;;;4532781;28;20040;-61
2021/09/08 13:06:56;;;;;;;7.83;3.57;;;;;;;;;;4533497;28;20056;-63
2021/09/08 13:09:07;;;;;;;7.27;3.30;;;;;;;;;;4553183;28;20028;-62